Time;durP1;ratioP1;P1;durP2;ratioP2;P2;SDS_P1;SDS_P2;PMS_P1;PMS_P2;Temp;Humidity;BMP_temperature;BMP_pressure;BME280_temperature;BME280_humidity;BME280_pressure;Samples;Min_cycle;Max_cycle;Signal;HPM_P1;HPM_P2
2023/10/24 00:01:43;;;;;;;36.67;18.20;;;9.80;99.90;;;;;;5048311;28;20093;-82
2023/10/24 00:04:09;;;;;;;23.10;15.70;;;9.80;99.90;;;;;;5031719;28;20128;-85
2023/10/24 00:06:34;;;;;;;21.10;15.87;;;9.70;99.90;;;;;;5013025;28;20052;-84
2023/10/24 00:09:00;;;;;;;23.77;16.33;;;9.80;99.90;;;;;;5046275;28;20060;-85
2023/10/24 00:11:26;;;;;;;25.07;16.03;;;9.80;99.90;;;;;;5045738;28;20053;-86
2023/10/24 00:13:52;;;;;;;19.93;14.53;;;9.80;99.90;;;;;;5028973;28;20064;-84
2023/10/24 00:16:17;;;;;;;20.33;15.48;;;9.70;99.90;;;;;;5029205;28;20058;-85
2023/10/24 00:18:43;;;;;;;23.83;15.83;;;9.80;99.90;;;;;;5045950;28;20053;-84
2023/10/24 00:21:09;;;;;;;24.37;15.33;;;9.80;99.90;;;;;;5030146;28;20133;-84
2023/10/24 00:23:34;;;;;;;33.87;16.03;;;9.80;99.90;;;;;;5045988;28;20042;-84
2023/10/24 00:26:00;;;;;;;27.37;16.20;;;9.70;99.90;;;;;;5029938;28;20076;-84
2023/10/24 00:28:26;;;;;;;22.27;16.00;;;9.70;99.90;;;;;;5029166;28;20080;-84
2023/10/24 00:30:52;;;;;;;23.17;17.10;;;9.70;99.90;;;;;;5013890;28;20057;-84
2023/10/24 00:33:17;;;;;;;23.87;16.00;;;9.70;99.90;;;;;;5029471;28;20527;-83
2023/10/24 00:35:43;;;;;;;26.20;16.63;;;9.70;99.90;;;;;;5013384;28;20054;-84
2023/10/24 00:38:09;;;;;;;27.47;18.97;;;9.70;99.90;;;;;;5013983;28;20057;-84
2023/10/24 00:40:35;;;;;;;23.63;15.73;;;9.70;99.90;;;;;;5045370;28;20125;-84
2023/10/24 00:43:04;;;;;;;27.90;18.17;;;9.70;99.90;;;;;;5029513;28;20107;-83
2023/10/24 00:45:35;;;;;;;22.63;15.88;;;9.70;99.90;;;;;;5029399;28;20108;-83
2023/10/24 00:48:05;;;;;;;24.02;15.30;;;9.70;99.90;;;;;;5045571;28;20124;-84
2023/10/24 00:50:32;;;;;;;27.20;17.98;;;9.70;99.90;;;;;;5028513;28;20054;-83
2023/10/24 00:52:58;;;;;;;25.20;17.40;;;9.70;99.90;;;;;;5028140;28;20050;-84
2023/10/24 00:55:25;;;;;;;26.25;18.35;;;9.70;99.90;;;;;;5045443;28;20060;-84
2023/10/24 00:57:51;;;;;;;24.45;17.10;;;9.70;99.90;;;;;;5028601;28;20050;-84
2023/10/24 01:00:18;;;;;;;28.73;17.50;;;9.60;99.90;;;;;;5045214;28;20060;-84
2023/10/24 01:02:45;;;;;;;26.50;19.38;;;9.70;99.90;;;;;;5011386;28;20539;-85
2023/10/24 01:05:11;;;;;;;28.63;18.65;;;9.60;99.90;;;;;;5045237;28;20049;-84
2023/10/24 01:07:37;;;;;;;29.83;18.17;;;9.70;99.90;;;;;;5044032;28;20046;-84
2023/10/24 01:10:03;;;;;;;33.90;20.73;;;9.60;99.90;;;;;;5028296;28;20053;-84
2023/10/24 01:12:28;;;;;;;27.42;18.27;;;9.60;99.90;;;;;;5011846;28;20080;-84
2023/10/24 01:14:54;;;;;;;26.40;18.80;;;9.60;99.90;;;;;;5044627;28;20175;-84
2023/10/24 01:17:20;;;;;;;29.60;19.60;;;9.70;99.90;;;;;;5028734;28;20045;-83
2023/10/24 01:19:45;;;;;;;25.67;18.83;;;9.60;99.90;;;;;;5028417;28;20042;-82
2023/10/24 01:22:11;;;;;;;28.27;20.30;;;9.60;99.90;;;;;;5044756;28;20038;-83
2023/10/24 01:24:37;;;;;;;31.80;20.30;;;9.60;99.90;;;;;;5012562;28;20045;-86
2023/10/24 01:27:03;;;;;;;26.50;18.17;;;9.70;99.90;;;;;;5027943;28;20484;-84
2023/10/24 01:29:29;;;;;;;28.57;19.17;;;9.70;99.90;;;;;;5027532;28;20046;-84
2023/10/24 01:31:54;;;;;;;28.20;18.33;;;9.70;99.90;;;;;;5027625;28;20081;-84
2023/10/24 01:34:20;;;;;;;25.80;17.53;;;9.70;99.90;;;;;;5012672;28;20050;-86
2023/10/24 01:36:46;;;;;;;30.20;19.93;;;9.70;99.90;;;;;;5027779;28;20125;-85
2023/10/24 01:39:12;;;;;;;24.50;18.03;;;9.70;99.90;;;;;;5044558;28;20049;-84
2023/10/24 01:41:37;;;;;;;26.38;18.42;;;9.70;99.90;;;;;;5027722;28;20183;-84
2023/10/24 01:44:03;;;;;;;30.60;19.27;;;9.70;99.90;;;;;;5027421;28;20046;-83
2023/10/24 01:46:29;;;;;;;25.92;18.00;;;9.70;99.90;;;;;;5044051;28;20056;-85
2023/10/24 01:48:55;;;;;;;28.67;19.23;;;9.80;99.90;;;;;;5027561;28;20045;-84
2023/10/24 01:51:21;;;;;;;27.67;19.10;;;9.70;99.90;;;;;;5027747;28;20050;-84
2023/10/24 01:54:01;;;;;;;28.33;19.77;;;9.80;99.90;;;;;;5024717;28;20053;-84
2023/10/24 01:56:27;;;;;;;29.50;18.23;;;9.80;99.90;;;;;;5012577;28;20060;-84
2023/10/24 01:58:53;;;;;;;26.77;18.47;;;9.80;99.90;;;;;;5027797;28;20060;-84
2023/10/24 02:01:18;;;;;;;27.37;18.00;;;9.80;99.90;;;;;;5027538;28;20037;-85
2023/10/24 02:03:44;;;;;;;28.97;19.07;;;9.80;99.90;;;;;;5027200;28;20042;-85
2023/10/24 02:06:12;;;;;;;24.40;18.90;;;9.80;99.90;;;;;;5044348;28;20096;-84
2023/10/24 02:08:38;;;;;;;27.73;18.90;;;9.90;99.90;;;;;;5012429;28;20050;-84
2023/10/24 02:11:04;;;;;;;26.23;17.73;;;9.90;99.90;;;;;;5011744;28;20072;-85
2023/10/24 02:13:29;;;;;;;27.37;18.20;;;9.90;99.90;;;;;;5027794;28;20438;-85
2023/10/24 02:15:55;;;;;;;24.67;17.07;;;9.90;99.90;;;;;;5027457;28;20088;-84
2023/10/24 02:18:21;;;;;;;25.90;17.40;;;9.90;99.90;;;;;;5012284;28;20129;-85
2023/10/24 02:20:46;;;;;;;32.90;19.10;;;10.00;99.90;;;;;;5011920;28;20100;-85
2023/10/24 02:23:12;;;;;;;26.33;18.37;;;9.90;99.90;;;;;;5027401;28;20046;-84
2023/10/24 02:25:38;;;;;;;32.67;19.30;;;9.90;99.90;;;;;;5010932;28;20128;-84
2023/10/24 02:28:04;;;;;;;28.33;19.73;;;9.90;99.90;;;;;;5043469;28;20288;-84
2023/10/24 02:30:30;;;;;;;24.20;17.13;;;10.00;99.90;;;;;;5011073;28;20046;-84
2023/10/24 02:33:00;;;;;;;25.53;17.57;;;10.00;99.90;;;;;;5043258;28;20049;-84
2023/10/24 02:35:27;;;;;;;26.90;19.90;;;10.00;99.90;;;;;;5044270;28;20077;-84
2023/10/24 02:37:53;;;;;;;29.55;18.83;;;10.00;99.90;;;;;;5027246;28;20050;-84
2023/10/24 02:40:18;;;;;;;26.50;18.60;;;10.00;99.90;;;;;;5012157;28;20388;-86
2023/10/24 02:42:44;;;;;;;27.57;17.20;;;10.00;99.90;;;;;;5031014;28;20042;-85
2023/10/24 02:45:10;;;;;;;25.23;17.70;;;10.10;99.90;;;;;;5047413;28;20093;-85
2023/10/24 02:47:36;;;;;;;22.52;16.58;;;10.10;99.90;;;;;;5030733;28;20046;-84
2023/10/24 02:50:02;;;;;;;26.33;18.13;;;10.10;99.90;;;;;;5030510;28;20049;-84
2023/10/24 02:52:29;;;;;;;28.98;19.10;;;10.10;99.90;;;;;;5046741;28;20140;-84
2023/10/24 02:54:58;;;;;;;26.85;18.17;;;10.10;99.90;;;;;;5047185;28;20100;-85
2023/10/24 02:57:24;;;;;;;30.48;19.55;;;10.10;99.90;;;;;;5030894;28;20046;-84
2023/10/24 02:59:50;;;;;;;28.70;19.33;;;10.10;99.90;;;;;;5014084;28;20046;-86
2023/10/24 03:02:15;;;;;;;31.53;18.73;;;10.10;99.90;;;;;;5047072;28;20554;-84
2023/10/24 03:04:44;;;;;;;27.80;19.63;;;10.10;99.90;;;;;;5030542;28;20080;-84
2023/10/24 03:07:10;;;;;;;27.83;19.60;;;10.20;99.90;;;;;;5046627;28;20045;-84
2023/10/24 03:09:36;;;;;;;25.80;18.07;;;10.20;99.90;;;;;;5047385;28;20056;-84
2023/10/24 03:12:05;;;;;;;27.40;19.38;;;10.20;99.90;;;;;;5029892;28;20052;-85
2023/10/24 03:14:30;;;;;;;29.38;19.73;;;10.20;99.90;;;;;;5030601;28;20085;-83
2023/10/24 03:16:56;;;;;;;30.13;20.23;;;10.20;99.90;;;;;;5029921;28;20081;-84
2023/10/24 03:19:22;;;;;;;34.53;20.27;;;9.30;99.90;;;;;;5030198;28;20045;-84
2023/10/24 03:21:49;;;;;;;33.70;22.50;;;10.20;99.90;;;;;;5030347;28;20173;-84
2023/10/24 03:24:15;;;;;;;28.13;20.38;;;10.20;99.90;;;;;;5046377;28;20092;-84
2023/10/24 03:26:41;;;;;;;36.90;22.30;;;10.20;99.90;;;;;;5030554;28;20081;-84
2023/10/24 03:29:07;;;;;;;33.20;22.13;;;10.20;99.90;;;;;;5046433;28;20048;-85
2023/10/24 03:31:32;;;;;;;30.13;22.70;;;10.20;99.90;;;;;;5030263;28;20515;-84
2023/10/24 03:33:58;;;;;;;31.60;23.17;;;10.20;99.90;;;;;;5029653;28;20052;-84
2023/10/24 03:36:24;;;;;;;37.95;23.05;;;10.20;99.90;;;;;;5030079;28;20192;-84
2023/10/24 03:38:50;;;;;;;37.13;23.27;;;10.20;99.90;;;;;;5014602;28;20664;-84
2023/10/24 03:41:15;;;;;;;34.37;23.07;;;10.20;99.90;;;;;;5029814;28;20050;-85
2023/10/24 03:43:47;;;;;;;30.33;19.60;;;10.30;99.90;;;;;;5046068;28;20155;-84
2023/10/24 03:46:13;;;;;;;32.58;23.48;;;10.30;99.90;;;;;;5029744;28;20100;-84
2023/10/24 03:48:39;;;;;;;33.67;22.60;;;10.30;99.90;;;;;;5046540;28;20053;-84
2023/10/24 03:51:05;;;;;;;36.73;23.73;;;10.30;99.90;;;;;;5028978;28;20046;-84
2023/10/24 03:53:30;;;;;;;34.60;24.47;;;10.30;99.90;;;;;;5029580;28;20100;-84
2023/10/24 03:55:58;;;;;;;35.07;24.37;;;10.30;99.90;;;;;;5029817;28;20052;-86
2023/10/24 03:58:25;;;;;;;35.30;24.08;;;10.30;99.90;;;;;;5029598;28;20037;-84
2023/10/24 04:00:50;;;;;;;35.60;24.25;;;10.30;99.90;;;;;;5029007;28;20583;-84
2023/10/24 04:03:16;;;;;;;36.57;23.93;;;10.40;99.90;;;;;;5013688;28;20117;-84
2023/10/24 04:05:42;;;;;;;36.93;24.93;;;10.40;99.90;;;;;;5029686;28;20108;-84
2023/10/24 04:08:08;;;;;;;39.43;24.90;;;10.40;99.90;;;;;;5029302;28;20507;-85
2023/10/24 04:10:34;;;;;;;39.55;26.15;;;10.40;99.90;;;;;;5029933;28;20042;-84
2023/10/24 04:13:00;;;;;;;38.37;26.67;;;10.40;99.90;;;;;;5029226;28;20052;-88
2023/10/24 04:15:27;;;;;;;36.00;26.13;;;10.40;99.90;;;;;;5013897;28;20443;-84
2023/10/24 04:17:53;;;;;;;45.53;29.17;;;10.40;99.90;;;;;;5013875;28;20085;-86
2023/10/24 04:20:19;;;;;;;41.78;26.83;;;10.40;99.90;;;;;;5029176;28;20111;-84
2023/10/24 04:22:47;;;;;;;44.07;28.00;;;10.40;99.90;;;;;;5046119;28;20049;-83
2023/10/24 04:25:12;;;;;;;51.97;31.92;;;10.40;99.90;;;;;;5045894;28;20045;-83
2023/10/24 04:27:38;;;;;;;44.17;28.60;;;10.50;99.90;;;;;;5046421;28;20075;-84
2023/10/24 04:30:09;;;;;;;47.27;30.63;;;10.40;99.90;;;;;;5029056;28;20049;-85
2023/10/24 04:32:35;;;;;;;44.10;29.48;;;10.50;99.90;;;;;;5046340;28;20045;-84
2023/10/24 04:35:01;;;;;;;43.90;28.83;;;10.50;99.90;;;;;;5046404;28;20053;-86
2023/10/24 04:37:27;;;;;;;41.20;28.50;;;10.50;99.90;;;;;;5029214;28;20065;-84
2023/10/24 04:39:54;;;;;;;40.43;27.93;;;10.50;99.90;;;;;;5029473;28;20535;-84
2023/10/24 04:42:21;;;;;;;37.50;27.50;;;10.50;99.90;;;;;;5045544;28;20053;-84
2023/10/24 04:44:46;;;;;;;38.58;27.27;;;10.60;99.90;;;;;;5029242;28;20046;-84
2023/10/24 04:47:12;;;;;;;36.87;24.97;;;10.60;99.90;;;;;;5045624;28;20545;-84
2023/10/24 04:49:38;;;;;;;35.80;27.57;;;10.60;99.90;;;;;;5029028;28;20050;-84
2023/10/24 04:52:04;;;;;;;40.00;27.47;;;10.60;99.90;;;;;;5012931;28;20065;-87
2023/10/24 04:54:29;;;;;;;40.53;26.83;;;10.60;99.90;;;;;;5028455;28;20133;-84
2023/10/24 04:56:55;;;;;;;35.50;26.40;;;10.60;99.90;;;;;;5028370;28;20046;-85
2023/10/24 04:59:21;;;;;;;36.90;25.73;;;10.70;99.90;;;;;;5028068;28;20476;-84
2023/10/24 05:01:47;;;;;;;38.33;25.87;;;10.70;99.90;;;;;;5044935;28;20077;-84
2023/10/24 05:04:12;;;;;;;34.40;25.33;;;10.70;99.90;;;;;;5011996;28;20494;-84
2023/10/24 05:06:38;;;;;;;31.23;24.77;;;10.70;99.90;;;;;;5045230;28;20060;-84
2023/10/24 05:09:04;;;;;;;42.83;28.00;;;10.70;99.90;;;;;;5012918;28;20132;-84
2023/10/24 05:11:29;;;;;;;39.40;27.53;;;10.70;99.90;;;;;;5044423;28;20045;-84
2023/10/24 05:13:55;;;;;;;35.47;25.67;;;10.70;99.90;;;;;;5028546;28;20046;-84
2023/10/24 05:16:21;;;;;;;33.77;24.93;;;10.70;99.90;;;;;;5012046;28;20112;-84
2023/10/24 05:18:47;;;;;;;32.23;24.40;;;10.70;99.90;;;;;;5028960;28;20173;-84
2023/10/24 05:21:15;;;;;;;32.43;22.53;;;10.60;99.90;;;;;;5012617;28;20488;-85
2023/10/24 05:23:41;;;;;;;30.38;20.73;;;10.70;99.90;;;;;;5027789;28;20082;-84
2023/10/24 05:26:07;;;;;;;32.47;22.00;;;10.60;99.90;;;;;;5044953;28;20084;-84
2023/10/24 05:28:34;;;;;;;28.10;22.67;;;10.70;99.90;;;;;;5027797;28;20128;-84
2023/10/24 05:31:08;;;;;;;26.88;21.15;;;10.60;99.90;;;;;;5044734;28;20037;-84
2023/10/24 05:33:38;;;;;;;26.27;19.25;;;11.20;99.90;;;;;;5027847;28;20054;-84
2023/10/24 05:36:04;;;;;;;24.60;19.55;;;10.70;99.90;;;;;;5044312;28;20085;-84
2023/10/24 05:38:32;;;;;;;23.90;19.33;;;10.70;99.90;;;;;;5010927;28;20255;-84
2023/10/24 05:41:01;;;;;;;23.23;18.67;;;10.60;99.90;;;;;;5012079;28;20503;-87
2023/10/24 05:43:27;;;;;;;23.92;19.20;;;10.60;99.90;;;;;;5043940;28;20452;-84
2023/10/24 05:45:53;;;;;;;26.67;18.13;;;10.70;99.90;;;;;;5028047;28;20050;-84
2023/10/24 05:48:19;;;;;;;23.03;18.90;;;10.60;99.90;;;;;;5010841;28;20112;-84
2023/10/24 05:50:44;;;;;;;23.67;18.50;;;10.60;99.90;;;;;;5027940;28;20132;-84
2023/10/24 05:53:10;;;;;;;25.33;18.60;;;10.60;99.90;;;;;;5028218;28;20298;-84
2023/10/24 05:55:36;;;;;;;19.17;14.97;;;10.60;99.90;;;;;;5044357;28;20089;-84
2023/10/24 05:58:02;;;;;;;23.67;16.07;;;10.60;99.90;;;;;;5028001;28;20806;-84
2023/10/24 06:00:28;;;;;;;19.13;15.10;;;10.60;99.90;;;;;;5026826;28;20048;-84
2023/10/24 06:02:54;;;;;;;;;;;9.80;99.90;;;;;;5013071;28;20402;-84
2023/10/24 06:05:20;;;;;;;17.95;14.85;;;10.60;99.90;;;;;;5027523;28;20016;-84
2023/10/24 06:07:45;;;;;;;19.10;15.27;;;10.50;99.90;;;;;;5012425;28;20132;-84
2023/10/24 06:10:13;;;;;;;19.33;15.50;;;10.50;99.90;;;;;;5027978;28;20053;-84
2023/10/24 06:12:39;;;;;;;21.52;15.93;;;10.50;99.90;;;;;;5043616;28;20472;-84
2023/10/24 06:15:08;;;;;;;19.03;14.83;;;10.60;99.90;;;;;;5014756;28;20045;-84
2023/10/24 06:17:35;;;;;;;22.65;15.07;;;10.60;99.90;;;;;;5048123;28;20617;-84
2023/10/24 06:20:01;;;;;;;20.50;16.98;;;10.30;99.90;;;;;;5016644;28;20053;-83
2023/10/24 06:22:28;;;;;;;19.33;15.10;;;10.60;99.90;;;;;;5014869;28;20046;-85
2023/10/24 06:24:56;;;;;;;18.98;14.68;;;10.60;99.90;;;;;;5033705;28;20388;-86
2023/10/24 06:27:27;;;;;;;17.90;14.30;;;10.60;99.90;;;;;;5049749;28;20046;-87
2023/10/24 06:29:58;;;;;;;19.45;14.90;;;10.50;99.90;;;;;;5015605;28;20514;-88
2023/10/24 06:32:32;;;;;;;19.63;14.52;;;10.40;99.90;;;;;;5048509;28;20038;-88
2023/10/24 06:35:28;;;;;;;19.92;14.43;;;10.50;99.90;;;;;;5032773;28;20050;-88
2023/10/24 06:37:54;;;;;;;17.55;14.63;;;9.90;99.90;;;;;;5032262;28;20056;-89
2023/10/24 06:40:22;;;;;;;17.07;14.00;;;10.60;99.90;;;;;;5047635;28;20042;-89
2023/10/24 06:42:51;;;;;;;17.77;14.35;;;10.50;99.90;;;;;;5047357;28;20666;-85
2023/10/24 06:45:19;;;;;;;18.17;14.77;;;10.60;99.90;;;;;;5031281;28;20050;-86
2023/10/24 06:47:45;;;;;;;17.92;14.60;;;10.50;99.90;;;;;;5048028;28;20050;-84
2023/10/24 06:50:11;;;;;;;19.70;13.35;;;10.60;99.90;;;;;;5048045;28;20060;-84
2023/10/24 06:52:38;;;;;;;18.38;13.38;;;10.50;99.90;;;;;;5014555;28;20054;-85
2023/10/24 06:55:06;;;;;;;18.35;14.70;;;10.60;99.90;;;;;;5048107;28;20042;-88
2023/10/24 06:57:34;;;;;;;14.88;12.43;;;10.90;99.90;;;;;;5047607;28;20050;-86
2023/10/24 07:00:03;;;;;;;15.90;12.70;;;10.50;99.90;;;;;;5016342;28;20077;-87
2023/10/24 07:02:31;;;;;;;17.30;13.15;;;10.50;99.90;;;;;;5047861;28;20148;-87
2023/10/24 07:05:04;;;;;;;15.02;12.60;;;9.80;99.90;;;;;;5031371;28;20085;-90
2023/10/24 07:08:25;;;;;;;15.52;12.50;;;10.60;99.90;;;;;;5031469;28;20057;-93
2023/10/24 07:11:01;;;;;;;14.93;11.55;;;10.50;99.90;;;;;;5030946;28;20095;-89
2023/10/24 07:13:32;;;;;;;13.15;10.90;;;10.50;99.90;;;;;;5031084;28;20046;-89
2023/10/24 07:16:18;;;;;;;13.30;11.43;;;10.50;99.90;;;;;;5031053;28;20050;-89
2023/10/24 07:18:54;;;;;;;16.60;12.18;;;9.90;99.90;;;;;;5031217;28;20133;-90
2023/10/24 07:21:23;;;;;;;15.30;11.43;;;10.50;99.90;;;;;;5030470;28;20109;-88
2023/10/24 07:23:54;;;;;;;17.27;12.85;;;10.50;99.90;;;;;;5030892;28;20061;-87
2023/10/24 07:26:23;;;;;;;14.70;12.63;;;10.50;99.90;;;;;;5030085;28;20102;-86
2023/10/24 07:28:51;;;;;;;15.80;11.85;;;10.60;99.90;;;;;;5030670;28;20415;-86
2023/10/24 07:31:20;;;;;;;15.20;11.85;;;10.60;99.90;;;;;;5030807;28;20049;-85
2023/10/24 07:33:54;;;;;;;16.10;12.20;;;10.60;99.90;;;;;;5047381;28;20618;-87
2023/10/24 07:36:20;;;;;;;17.27;11.95;;;10.60;99.90;;;;;;5030141;28;20056;-89
2023/10/24 07:38:56;;;;;;;15.50;11.77;;;10.60;99.90;;;;;;5048587;28;20042;-88
2023/10/24 07:45:32;;;;;;;15.45;12.02;;;10.70;99.90;;;;;;4995935;28;20103;-87
2023/10/24 07:48:00;;;;;;;16.00;12.38;;;10.70;99.90;;;;;;5030651;28;20399;-87
2023/10/24 07:50:28;;;;;;;17.57;11.97;;;10.70;99.90;;;;;;5030160;28;20124;-90
2023/10/24 07:52:56;;;;;;;15.77;12.82;;;10.70;99.90;;;;;;5046573;28;20054;-86
2023/10/24 07:55:28;;;;;;;15.98;12.50;;;10.70;99.90;;;;;;5030222;28;20125;-87
2023/10/24 07:57:56;;;;;;;16.80;11.85;;;10.40;99.90;;;;;;5030396;28;20053;-87
2023/10/24 08:00:22;;;;;;;16.00;12.18;;;10.70;99.90;;;;;;5046378;28;20554;-86
2023/10/24 08:02:50;;;;;;;16.80;12.27;;;10.70;99.90;;;;;;5029841;28;20132;-86
2023/10/24 08:05:16;;;;;;;15.77;11.40;;;10.70;99.90;;;;;;5046942;28;20054;-86
2023/10/24 08:07:47;;;;;;;15.60;11.83;;;10.70;99.90;;;;;;5029927;28;20073;-86
2023/10/24 08:10:26;;;;;;;;;;;;;;;;;;;;;
2023/10/24 08:12:54;;;;;;;14.48;11.30;;;10.70;99.90;;;;;;5046380;28;20050;-86
2023/10/24 08:15:25;;;;;;;19.15;13.13;;;10.70;99.90;;;;;;5046245;28;20400;-87
2023/10/24 08:18:00;;;;;;;16.17;11.75;;;10.70;99.90;;;;;;5029850;28;20541;-86
2023/10/24 08:20:26;;;;;;;16.15;12.20;;;10.70;99.90;;;;;;5044292;28;20045;-87
2023/10/24 08:22:59;;;;;;;15.52;11.52;;;10.70;99.90;;;;;;5045877;28;20125;-86
2023/10/24 08:25:25;;;;;;;17.98;11.63;;;10.70;99.90;;;;;;5046358;28;20117;-87
2023/10/24 08:27:53;;;;;;;13.83;11.27;;;10.80;99.90;;;;;;5029624;28;20148;-88
2023/10/24 08:30:19;;;;;;;17.30;12.00;;;10.70;99.90;;;;;;5012943;28;20340;-93
2023/10/24 08:32:45;;;;;;;20.17;13.32;;;10.70;99.90;;;;;;5029720;28;20046;-87
2023/10/24 08:35:13;;;;;;;18.90;13.17;;;10.70;99.90;;;;;;5045948;28;20140;-88
2023/10/24 08:38:04;;;;;;;17.88;12.25;;;10.70;99.90;;;;;;5030476;28;20072;-90
2023/10/24 08:40:35;;;;;;;18.00;12.40;;;10.70;99.90;;;;;;5013353;28;20496;-91
2023/10/24 08:43:03;;;;;;;18.08;11.52;;;10.70;99.90;;;;;;5029753;28;20041;-88
2023/10/24 08:45:35;;;;;;;17.10;13.02;;;11.30;99.90;;;;;;5046461;28;20042;-88
2023/10/24 08:48:19;;;;;;;18.17;12.68;;;10.70;99.90;;;;;;5046014;28;20057;-89
2023/10/24 08:50:56;;;;;;;18.00;13.32;;;10.80;99.90;;;;;;5029023;28;20057;-88
2023/10/24 08:53:35;;;;;;;20.08;12.95;;;10.70;99.90;;;;;;5029814;28;20446;-86
2023/10/24 08:56:06;;;;;;;16.50;12.65;;;10.70;99.90;;;;;;5046482;28;20585;-86
2023/10/24 08:58:36;;;;;;;16.67;11.63;;;10.80;99.90;;;;;;5030805;28;20046;-88
2023/10/24 09:01:05;;;;;;;18.88;13.73;;;9.90;99.90;;;;;;5030181;28;20104;-89
2023/10/24 09:03:39;;;;;;;19.80;14.07;;;10.80;99.90;;;;;;5046180;28;20184;-88
2023/10/24 09:06:20;;;;;;;19.42;13.38;;;10.80;99.90;;;;;;5046353;28;20057;-88
2023/10/24 09:08:48;;;;;;;17.48;13.77;;;10.80;99.90;;;;;;5045608;28;20100;-88
2023/10/24 09:11:17;;;;;;;18.35;13.23;;;10.80;99.90;;;;;;5029448;28;20052;-88
2023/10/24 09:14:00;;;;;;;17.45;12.73;;;11.50;99.90;;;;;;5045341;28;20045;-88
2023/10/24 09:16:26;;;;;;;18.35;15.00;;;10.20;99.90;;;;;;5029245;28;20046;-86
2023/10/24 09:18:57;;;;;;;21.17;13.65;;;10.70;99.90;;;;;;5028841;28;20053;-87
2023/10/24 09:21:44;;;;;;;20.20;14.10;;;10.20;99.90;;;;;;5045496;28;20050;-88
2023/10/24 09:24:21;;;;;;;17.15;12.63;;;10.80;99.90;;;;;;5045837;28;20092;-88
2023/10/24 09:27:15;;;;;;;17.08;12.90;;;10.70;99.90;;;;;;5029039;28;20049;-88
2023/10/24 09:29:46;;;;;;;19.35;13.43;;;10.70;99.90;;;;;;5011777;28;20057;-88
2023/10/24 09:32:17;;;;;;;20.20;14.63;;;10.70;99.90;;;;;;5045699;28;20049;-88
2023/10/24 09:34:44;;;;;;;17.33;13.05;;;10.70;99.90;;;;;;5028374;28;20060;-88
2023/10/24 09:37:16;;;;;;;19.38;14.93;;;10.70;99.90;;;;;;5029047;28;20056;-88
2023/10/24 09:40:01;;;;;;;16.00;12.95;;;10.70;99.90;;;;;;5044773;28;20049;-89
2023/10/24 09:42:33;;;;;;;17.77;14.00;;;10.70;99.90;;;;;;5045278;28;20054;-88
2023/10/24 09:45:07;;;;;;;18.45;13.27;;;11.20;99.90;;;;;;5028578;28;20050;-88
2023/10/24 09:47:41;;;;;;;15.10;11.90;;;10.70;99.90;;;;;;5045503;28;20052;-91
2023/10/24 09:50:16;;;;;;;18.98;14.40;;;9.90;99.90;;;;;;5050302;28;20112;-89
2023/10/24 09:52:46;;;;;;;16.60;12.88;;;10.70;99.90;;;;;;5051820;28;20050;-87
2023/10/24 09:55:15;;;;;;;18.98;13.40;;;10.70;99.90;;;;;;5035558;28;20054;-88
2023/10/24 09:57:44;;;;;;;15.82;12.32;;;10.70;99.90;;;;;;5051541;28;20483;-88
2023/10/24 10:00:11;;;;;;;16.92;12.27;;;10.70;99.90;;;;;;5034862;28;20130;-88
2023/10/24 10:02:47;;;;;;;16.23;12.77;;;10.70;99.90;;;;;;5051221;28;20104;-91
2023/10/24 10:07:55;;;;;;;14.80;12.95;;;10.70;99.90;;;;;;3698261;26;20467;-85
2023/10/24 10:10:28;;;;;;;16.55;12.45;;;10.70;99.90;;;;;;4996574;28;20046;-87
2023/10/24 10:13:02;;;;;;;15.45;11.48;;;10.70;99.90;;;;;;4997397;28;20038;-88
2023/10/24 10:15:38;;;;;;;14.10;11.23;;;10.70;99.90;;;;;;4997327;28;20053;-87
2023/10/24 10:18:23;;;;;;;11.48;10.02;;;10.90;99.90;;;;;;4997274;28;20045;-87
2023/10/24 10:21:21;;;;;;;14.88;11.70;;;10.70;99.90;;;;;;4995394;28;20046;-87
2023/10/24 10:24:26;;;;;;;16.58;11.85;;;10.70;99.90;;;;;;5012226;28;20045;-87
2023/10/24 10:27:00;;;;;;;14.27;10.95;;;10.70;99.90;;;;;;4995955;28;20058;-88
2023/10/24 10:30:38;;;;;;;15.45;11.38;;;10.30;99.90;;;;;;5012073;28;20121;-88
2023/10/24 10:33:17;;;;;;;12.95;11.15;;;10.80;99.90;;;;;;4902052;29;20133;-88
2023/10/24 10:36:19;;;;;;;14.20;11.02;;;10.80;99.90;;;;;;4969784;28;20058;-93
2023/10/24 10:39:00;;;;;;;14.10;10.95;;;10.80;99.90;;;;;;5005405;28;20121;-95
2023/10/24 10:41:31;;;;;;;15.88;10.85;;;10.90;99.90;;;;;;4978907;28;20100;-88
2023/10/24 10:44:01;;;;;;;12.45;10.18;;;10.90;99.90;;;;;;4996166;28;20403;-89
2023/10/24 10:47:05;;;;;;;16.63;11.57;;;11.00;99.90;;;;;;4978233;28;20489;-88
2023/10/24 10:49:46;;;;;;;13.07;10.65;;;11.00;99.90;;;;;;4991091;28;20096;-88
2023/10/24 10:52:57;;;;;;;;;;;;;;;;;;;;;
2023/10/24 10:55:58;;;;;;;13.40;10.68;;;10.40;99.90;;;;;;4998123;28;20050;-88
2023/10/24 10:58:47;;;;;;;15.73;10.60;;;11.10;99.90;;;;;;4997437;28;20516;-87
2023/10/24 11:01:50;;;;;;;14.80;11.95;;;11.10;99.90;;;;;;4994069;28;20488;-88
2023/10/24 11:04:19;;;;;;;14.75;11.20;;;11.10;99.90;;;;;;4994554;28;20050;-88
2023/10/24 11:06:57;;;;;;;15.27;11.65;;;11.20;99.90;;;;;;4977448;28;20050;-88
2023/10/24 11:09:54;;;;;;;13.82;11.50;;;11.20;99.90;;;;;;4993781;28;20054;-89
2023/10/24 11:12:55;;;;;;;17.42;12.70;;;11.30;99.90;;;;;;5051799;23;20056;-88
2023/10/24 11:15:29;;;;;;;15.32;11.57;;;11.30;99.90;;;;;;5039398;28;20048;-91
2023/10/24 11:17:58;;;;;;;14.13;10.77;;;11.30;99.90;;;;;;5022658;28;20045;-92
2023/10/24 11:20:24;;;;;;;13.32;11.13;;;11.30;99.90;;;;;;5020189;28;20059;-90
2023/10/24 11:22:50;;;;;;;15.40;12.25;;;11.30;99.90;;;;;;5011573;28;20042;-88
2023/10/24 11:25:16;;;;;;;13.20;11.20;;;10.70;99.90;;;;;;5033129;28;20538;-89
2023/10/24 11:28:18;;;;;;;16.02;12.40;;;11.30;99.90;;;;;;5009180;28;20270;-89
2023/10/24 11:30:47;;;;;;;13.48;11.40;;;11.30;99.90;;;;;;4997436;28;20064;-91
2023/10/24 11:33:21;;;;;;;12.35;10.55;;;11.30;99.90;;;;;;4995591;28;20182;-92
2023/10/24 11:35:47;;;;;;;16.75;11.85;;;10.40;99.90;;;;;;5005772;28;20061;-92
2023/10/24 11:38:18;;;;;;;15.02;12.10;;;10.70;99.90;;;;;;5035155;28;20108;-93
2023/10/24 11:40:54;;;;;;;13.85;11.50;;;11.30;99.90;;;;;;5020493;28;20510;-89
2023/10/24 11:43:20;;;;;;;14.18;11.10;;;11.40;99.90;;;;;;5029366;28;20045;-89
2023/10/24 11:45:50;;;;;;;15.20;12.60;;;11.40;99.90;;;;;;5005061;28;20099;-90
2023/10/24 11:48:16;;;;;;;16.40;12.88;;;11.40;99.90;;;;;;5015198;28;20045;-89
2023/10/24 11:50:48;;;;;;;14.17;11.23;;;11.40;99.90;;;;;;5024493;28;20613;-89
2023/10/24 11:53:28;;;;;;;14.95;12.32;;;11.40;99.90;;;;;;5015594;28;20076;-90
2023/10/24 11:55:56;;;;;;;15.45;11.98;;;11.40;99.90;;;;;;5015689;28;20060;-90
2023/10/24 11:58:22;;;;;;;14.00;12.35;;;11.40;99.90;;;;;;4998311;28;20053;-89
2023/10/24 12:00:50;;;;;;;;;;;11.40;99.90;;;;;;5016825;28;20438;-89
2023/10/24 12:03:16;;;;;;;;;;;11.50;99.90;;;;;;5016863;28;19921;-88
2023/10/24 12:06:04;;;;;;;14.68;11.60;;;11.50;99.90;;;;;;5001163;28;19928;-89
2023/10/24 12:08:29;;;;;;;14.90;11.52;;;11.60;99.90;;;;;;5034028;28;20124;-88
2023/10/24 12:10:56;;;;;;;16.27;13.40;;;11.70;99.90;;;;;;5017651;28;20128;-89
2023/10/24 12:13:27;;;;;;;14.60;13.00;;;11.80;99.90;;;;;;5002284;28;20049;-90
2023/10/24 12:15:53;;;;;;;15.07;12.80;;;12.00;99.90;;;;;;5017689;28;20127;-89
2023/10/24 12:18:19;;;;;;;13.48;12.02;;;12.10;99.90;;;;;;5022863;28;20117;-89
2023/10/24 12:20:52;;;;;;;16.95;13.90;;;12.20;99.90;;;;;;5015621;28;20049;-89
2023/10/24 12:23:20;;;;;;;14.70;11.88;;;12.20;99.90;;;;;;5031417;28;20496;-89
2023/10/24 12:25:48;;;;;;;12.90;11.52;;;12.30;99.90;;;;;;5004629;28;21313;-89
2023/10/24 12:28:14;;;;;;;15.40;11.43;;;12.20;99.90;;;;;;5026200;28;20044;-89
2023/10/24 12:30:43;;;;;;;12.30;10.95;;;12.20;99.90;;;;;;5045920;28;20390;-90
2023/10/24 12:33:08;;;;;;;13.40;12.00;;;12.20;99.90;;;;;;5019174;28;20048;-86
2023/10/24 12:35:34;;;;;;;13.10;11.63;;;12.10;99.90;;;;;;5048230;28;20044;-87
2023/10/24 12:38:11;;;;;;;17.23;12.47;;;12.10;99.90;;;;;;5046890;28;20332;-91
2023/10/24 12:40:47;;;;;;;13.05;11.38;;;12.00;99.90;;;;;;5009163;28;20041;-89
2023/10/24 12:43:13;;;;;;;13.38;11.65;;;12.00;99.90;;;;;;5001790;28;20540;-88
2023/10/24 12:45:38;;;;;;;13.82;11.57;;;11.90;99.90;;;;;;5009585;28;20042;-88
2023/10/24 12:48:10;;;;;;;14.03;12.33;;;11.90;99.90;;;;;;5038153;28;20045;-89
2023/10/24 12:50:37;;;;;;;14.65;11.48;;;11.90;99.90;;;;;;5001115;28;20049;-89
2023/10/24 12:53:05;;;;;;;12.70;10.60;;;11.80;99.90;;;;;;5002490;28;20046;-90
2023/10/24 12:55:31;;;;;;;13.43;10.25;;;11.80;99.90;;;;;;4999611;28;20053;-89